sensor_id;sensor_type;location;lat;lon;timestamp;P1;durP1;ratioP1;P2;durP2;ratioP2
3587;SDS011;1808;53.596;9.972;2023-05-07T00:01:04;18.58;;;11.95;;
3587;SDS011;1808;53.596;9.972;2023-05-07T00:03:31;21.00;;;11.98;;
3587;SDS011;1808;53.596;9.972;2023-05-07T00:05:57;22.98;;;12.80;;
3587;SDS011;1808;53.596;9.972;2023-05-07T00:08:24;22.58;;;12.98;;
3587;SDS011;1808;53.596;9.972;2023-05-07T00:10:50;21.38;;;12.63;;
3587;SDS011;1808;53.596;9.972;2023-05-07T00:13:16;20.15;;;13.10;;
3587;SDS011;1808;53.596;9.972;2023-05-07T00:15:44;20.15;;;11.75;;
3587;SDS011;1808;53.596;9.972;2023-05-07T00:18:10;20.65;;;12.07;;
3587;SDS011;1808;53.596;9.972;2023-05-07T00:20:36;20.70;;;11.80;;
3587;SDS011;1808;53.596;9.972;2023-05-07T00:23:02;23.67;;;12.18;;
3587;SDS011;1808;53.596;9.972;2023-05-07T00:25:29;22.30;;;13.15;;
3587;SDS011;1808;53.596;9.972;2023-05-07T00:27:55;19.40;;;12.45;;
3587;SDS011;1808;53.596;9.972;2023-05-07T00:30:22;21.83;;;11.77;;
3587;SDS011;1808;53.596;9.972;2023-05-07T00:32:50;19.20;;;12.05;;
3587;SDS011;1808;53.596;9.972;2023-05-07T00:35:16;23.40;;;12.73;;
3587;SDS011;1808;53.596;9.972;2023-05-07T00:37:42;21.48;;;12.57;;
3587;SDS011;1808;53.596;9.972;2023-05-07T00:40:09;21.27;;;11.73;;
3587;SDS011;1808;53.596;9.972;2023-05-07T00:42:36;20.88;;;12.77;;
3587;SDS011;1808;53.596;9.972;2023-05-07T00:45:03;20.95;;;11.98;;
3587;SDS011;1808;53.596;9.972;2023-05-07T00:47:29;20.00;;;11.50;;
3587;SDS011;1808;53.596;9.972;2023-05-07T00:49:56;20.63;;;11.82;;
3587;SDS011;1808;53.596;9.972;2023-05-07T00:52:23;22.75;;;12.40;;
3587;SDS011;1808;53.596;9.972;2023-05-07T00:54:51;22.00;;;11.68;;
3587;SDS011;1808;53.596;9.972;2023-05-07T00:57:17;24.58;;;12.60;;
3587;SDS011;1808;53.596;9.972;2023-05-07T00:59:43;23.40;;;13.07;;
3587;SDS011;1808;53.596;9.972;2023-05-07T01:02:10;24.48;;;13.10;;
3587;SDS011;1808;53.596;9.972;2023-05-07T01:04:36;22.15;;;11.55;;
3587;SDS011;1808;53.596;9.972;2023-05-07T01:07:04;20.88;;;11.50;;
3587;SDS011;1808;53.596;9.972;2023-05-07T01:09:31;17.55;;;11.13;;
3587;SDS011;1808;53.596;9.972;2023-05-07T01:11:57;25.52;;;13.25;;
3587;SDS011;1808;53.596;9.972;2023-05-07T01:14:24;24.95;;;12.00;;
3587;SDS011;1808;53.596;9.972;2023-05-07T01:16:50;24.77;;;13.75;;
3587;SDS011;1808;53.596;9.972;2023-05-07T01:19:17;18.02;;;10.30;;
3587;SDS011;1808;53.596;9.972;2023-05-07T01:21:44;20.85;;;11.13;;
3587;SDS011;1808;53.596;9.972;2023-05-07T01:24:13;21.48;;;13.02;;
3587;SDS011;1808;53.596;9.972;2023-05-07T01:26:40;18.63;;;12.10;;
3587;SDS011;1808;53.596;9.972;2023-05-07T01:29:06;17.92;;;11.05;;
3587;SDS011;1808;53.596;9.972;2023-05-07T01:31:32;20.95;;;13.60;;
3587;SDS011;1808;53.596;9.972;2023-05-07T01:33:59;18.55;;;10.98;;
3587;SDS011;1808;53.596;9.972;2023-05-07T01:36:26;17.88;;;10.75;;
3587;SDS011;1808;53.596;9.972;2023-05-07T01:38:55;18.35;;;11.15;;
3587;SDS011;1808;53.596;9.972;2023-05-07T01:41:24;17.92;;;10.63;;
3587;SDS011;1808;53.596;9.972;2023-05-07T01:43:50;19.35;;;10.40;;
3587;SDS011;1808;53.596;9.972;2023-05-07T01:46:17;19.45;;;10.57;;
3587;SDS011;1808;53.596;9.972;2023-05-07T01:48:44;17.38;;;10.25;;
3587;SDS011;1808;53.596;9.972;2023-05-07T01:51:11;19.27;;;11.68;;
3587;SDS011;1808;53.596;9.972;2023-05-07T01:53:37;18.83;;;11.23;;
3587;SDS011;1808;53.596;9.972;2023-05-07T01:56:04;18.02;;;11.52;;
3587;SDS011;1808;53.596;9.972;2023-05-07T01:58:31;16.95;;;11.30;;
3587;SDS011;1808;53.596;9.972;2023-05-07T02:00:58;18.73;;;10.20;;
3587;SDS011;1808;53.596;9.972;2023-05-07T02:03:25;17.05;;;10.63;;
3587;SDS011;1808;53.596;9.972;2023-05-07T02:05:51;18.23;;;10.15;;
3587;SDS011;1808;53.596;9.972;2023-05-07T02:08:17;20.17;;;11.68;;
3587;SDS011;1808;53.596;9.972;2023-05-07T02:10:44;16.98;;;10.40;;
3587;SDS011;1808;53.596;9.972;2023-05-07T02:13:10;19.85;;;11.18;;
3587;SDS011;1808;53.596;9.972;2023-05-07T02:15:37;19.42;;;11.70;;
3587;SDS011;1808;53.596;9.972;2023-05-07T02:18:04;18.48;;;10.63;;
3587;SDS011;1808;53.596;9.972;2023-05-07T02:20:31;18.02;;;10.20;;
3587;SDS011;1808;53.596;9.972;2023-05-07T02:22:57;17.33;;;10.48;;
3587;SDS011;1808;53.596;9.972;2023-05-07T02:25:23;19.58;;;10.75;;
3587;SDS011;1808;53.596;9.972;2023-05-07T02:27:49;16.95;;;9.50;;
3587;SDS011;1808;53.596;9.972;2023-05-07T02:30:15;16.40;;;9.60;;
3587;SDS011;1808;53.596;9.972;2023-05-07T02:32:43;17.88;;;11.90;;
3587;SDS011;1808;53.596;9.972;2023-05-07T02:35:09;18.92;;;10.98;;
3587;SDS011;1808;53.596;9.972;2023-05-07T02:37:35;19.33;;;10.40;;
3587;SDS011;1808;53.596;9.972;2023-05-07T02:40:02;16.38;;;10.07;;
3587;SDS011;1808;53.596;9.972;2023-05-07T02:42:29;20.20;;;11.68;;
3587;SDS011;1808;53.596;9.972;2023-05-07T02:44:55;16.38;;;10.38;;
3587;SDS011;1808;53.596;9.972;2023-05-07T02:47:21;17.27;;;9.57;;
3587;SDS011;1808;53.596;9.972;2023-05-07T02:49:49;15.48;;;9.00;;
3587;SDS011;1808;53.596;9.972;2023-05-07T02:52:15;20.73;;;10.05;;
3587;SDS011;1808;53.596;9.972;2023-05-07T02:54:41;18.25;;;9.23;;
3587;SDS011;1808;53.596;9.972;2023-05-07T02:57:07;16.70;;;9.30;;
3587;SDS011;1808;53.596;9.972;2023-05-07T02:59:33;19.17;;;11.13;;
3587;SDS011;1808;53.596;9.972;2023-05-07T03:02:00;22.70;;;11.05;;
3587;SDS011;1808;53.596;9.972;2023-05-07T03:04:26;17.88;;;10.40;;
3587;SDS011;1808;53.596;9.972;2023-05-07T03:06:53;16.63;;;9.48;;
3587;SDS011;1808;53.596;9.972;2023-05-07T03:09:19;16.67;;;9.55;;
3587;SDS011;1808;53.596;9.972;2023-05-07T03:11:46;18.52;;;10.60;;
3587;SDS011;1808;53.596;9.972;2023-05-07T03:14:12;19.92;;;10.52;;
3587;SDS011;1808;53.596;9.972;2023-05-07T03:16:38;17.13;;;10.82;;
3587;SDS011;1808;53.596;9.972;2023-05-07T03:19:05;19.05;;;10.45;;
3587;SDS011;1808;53.596;9.972;2023-05-07T03:21:31;20.23;;;13.00;;
3587;SDS011;1808;53.596;9.972;2023-05-07T03:24:00;20.33;;;10.95;;
3587;SDS011;1808;53.596;9.972;2023-05-07T03:26:26;20.10;;;11.82;;
3587;SDS011;1808;53.596;9.972;2023-05-07T03:28:52;20.90;;;12.00;;
3587;SDS011;1808;53.596;9.972;2023-05-07T03:31:18;20.88;;;11.45;;
3587;SDS011;1808;53.596;9.972;2023-05-07T03:33:51;18.02;;;9.82;;
3587;SDS011;1808;53.596;9.972;2023-05-07T03:38:43;18.52;;;10.55;;
3587;SDS011;1808;53.596;9.972;2023-05-07T03:41:11;20.55;;;11.45;;
3587;SDS011;1808;53.596;9.972;2023-05-07T03:43:37;21.05;;;11.88;;
3587;SDS011;1808;53.596;9.972;2023-05-07T03:46:04;22.00;;;14.32;;
3587;SDS011;1808;53.596;9.972;2023-05-07T03:48:30;22.50;;;15.18;;
3587;SDS011;1808;53.596;9.972;2023-05-07T03:50:56;23.35;;;11.82;;
3587;SDS011;1808;53.596;9.972;2023-05-07T03:53:23;25.05;;;14.38;;
3587;SDS011;1808;53.596;9.972;2023-05-07T03:55:49;21.85;;;11.00;;
3587;SDS011;1808;53.596;9.972;2023-05-07T03:58:17;19.83;;;10.52;;
3587;SDS011;1808;53.596;9.972;2023-05-07T04:00:44;21.42;;;11.57;;
3587;SDS011;1808;53.596;9.972;2023-05-07T04:03:10;20.02;;;11.98;;
3587;SDS011;1808;53.596;9.972;2023-05-07T04:05:36;16.48;;;10.23;;
3587;SDS011;1808;53.596;9.972;2023-05-07T04:08:03;19.83;;;11.95;;
3587;SDS011;1808;53.596;9.972;2023-05-07T04:10:30;16.25;;;9.77;;
3587;SDS011;1808;53.596;9.972;2023-05-07T04:12:56;18.50;;;11.73;;
3587;SDS011;1808;53.596;9.972;2023-05-07T04:15:24;19.08;;;11.63;;
3587;SDS011;1808;53.596;9.972;2023-05-07T04:17:50;17.02;;;10.02;;
3587;SDS011;1808;53.596;9.972;2023-05-07T04:20:16;17.42;;;10.15;;
3587;SDS011;1808;53.596;9.972;2023-05-07T04:22:42;23.10;;;11.68;;
3587;SDS011;1808;53.596;9.972;2023-05-07T04:25:09;18.73;;;11.85;;
3587;SDS011;1808;53.596;9.972;2023-05-07T04:27:35;16.48;;;10.55;;
3587;SDS011;1808;53.596;9.972;2023-05-07T04:30:02;18.92;;;10.73;;
3587;SDS011;1808;53.596;9.972;2023-05-07T04:32:29;18.00;;;10.45;;
3587;SDS011;1808;53.596;9.972;2023-05-07T04:34:56;17.10;;;9.82;;
3587;SDS011;1808;53.596;9.972;2023-05-07T04:37:22;19.33;;;10.82;;
3587;SDS011;1808;53.596;9.972;2023-05-07T04:39:49;19.58;;;11.50;;
3587;SDS011;1808;53.596;9.972;2023-05-07T04:42:15;21.70;;;10.75;;
3587;SDS011;1808;53.596;9.972;2023-05-07T04:44:41;15.00;;;9.57;;
3587;SDS011;1808;53.596;9.972;2023-05-07T04:47:08;16.85;;;9.52;;
3587;SDS011;1808;53.596;9.972;2023-05-07T04:49:36;19.00;;;10.35;;
3587;SDS011;1808;53.596;9.972;2023-05-07T04:52:02;19.33;;;9.93;;
3587;SDS011;1808;53.596;9.972;2023-05-07T04:54:29;16.92;;;9.88;;
3587;SDS011;1808;53.596;9.972;2023-05-07T04:56:55;19.83;;;10.57;;
3587;SDS011;1808;53.596;9.972;2023-05-07T04:59:21;14.00;;;8.57;;
3587;SDS011;1808;53.596;9.972;2023-05-07T05:01:47;19.65;;;9.70;;
3587;SDS011;1808;53.596;9.972;2023-05-07T05:04:14;17.88;;;9.65;;
3587;SDS011;1808;53.596;9.972;2023-05-07T05:06:41;16.23;;;9.60;;
3587;SDS011;1808;53.596;9.972;2023-05-07T05:09:07;14.55;;;8.85;;
3587;SDS011;1808;53.596;9.972;2023-05-07T05:11:34;17.10;;;10.32;;
3587;SDS011;1808;53.596;9.972;2023-05-07T05:14:00;17.65;;;9.10;;
3587;SDS011;1808;53.596;9.972;2023-05-07T05:16:26;17.15;;;9.88;;
3587;SDS011;1808;53.596;9.972;2023-05-07T05:18:53;15.93;;;9.73;;
3587;SDS011;1808;53.596;9.972;2023-05-07T05:21:19;17.98;;;9.00;;
3587;SDS011;1808;53.596;9.972;2023-05-07T05:23:47;16.95;;;9.60;;
3587;SDS011;1808;53.596;9.972;2023-05-07T05:26:13;16.67;;;9.70;;
3587;SDS011;1808;53.596;9.972;2023-05-07T05:28:40;17.23;;;8.90;;
3587;SDS011;1808;53.596;9.972;2023-05-07T05:31:06;16.83;;;10.45;;
3587;SDS011;1808;53.596;9.972;2023-05-07T05:33:32;16.05;;;10.07;;
3587;SDS011;1808;53.596;9.972;2023-05-07T05:35:58;20.52;;;11.40;;
3587;SDS011;1808;53.596;9.972;2023-05-07T05:38:24;17.05;;;10.02;;
3587;SDS011;1808;53.596;9.972;2023-05-07T05:40:52;21.35;;;11.05;;
3587;SDS011;1808;53.596;9.972;2023-05-07T05:43:18;19.40;;;9.93;;
3587;SDS011;1808;53.596;9.972;2023-05-07T05:45:44;18.42;;;11.18;;
3587;SDS011;1808;53.596;9.972;2023-05-07T05:48:11;17.67;;;9.38;;
3587;SDS011;1808;53.596;9.972;2023-05-07T05:50:37;16.60;;;10.68;;
3587;SDS011;1808;53.596;9.972;2023-05-07T05:53:03;18.33;;;10.88;;
3587;SDS011;1808;53.596;9.972;2023-05-07T05:55:29;16.13;;;9.38;;
3587;SDS011;1808;53.596;9.972;2023-05-07T05:57:58;17.45;;;10.45;;
3587;SDS011;1808;53.596;9.972;2023-05-07T06:00:24;16.67;;;9.75;;
3587;SDS011;1808;53.596;9.972;2023-05-07T06:02:51;19.52;;;11.23;;
3587;SDS011;1808;53.596;9.972;2023-05-07T06:05:17;18.48;;;11.55;;
3587;SDS011;1808;53.596;9.972;2023-05-07T06:07:44;16.23;;;10.13;;
3587;SDS011;1808;53.596;9.972;2023-05-07T06:10:10;19.90;;;11.20;;
3587;SDS011;1808;53.596;9.972;2023-05-07T06:12:36;20.45;;;11.02;;
3587;SDS011;1808;53.596;9.972;2023-05-07T06:15:04;19.02;;;10.88;;
3587;SDS011;1808;53.596;9.972;2023-05-07T06:17:30;16.15;;;9.40;;
3587;SDS011;1808;53.596;9.972;2023-05-07T06:19:57;19.42;;;10.57;;
3587;SDS011;1808;53.596;9.972;2023-05-07T06:22:23;18.23;;;10.05;;
3587;SDS011;1808;53.596;9.972;2023-05-07T06:24:49;16.92;;;9.73;;
3587;SDS011;1808;53.596;9.972;2023-05-07T06:27:15;16.50;;;9.85;;
3587;SDS011;1808;53.596;9.972;2023-05-07T06:29:41;16.83;;;10.48;;
3587;SDS011;1808;53.596;9.972;2023-05-07T06:32:09;16.00;;;9.60;;
3587;SDS011;1808;53.596;9.972;2023-05-07T06:34:36;18.27;;;10.38;;
3587;SDS011;1808;53.596;9.972;2023-05-07T06:37:02;18.63;;;10.77;;
3587;SDS011;1808;53.596;9.972;2023-05-07T06:39:29;16.95;;;9.18;;
3587;SDS011;1808;53.596;9.972;2023-05-07T06:41:55;16.15;;;10.52;;
3587;SDS011;1808;53.596;9.972;2023-05-07T06:44:21;18.20;;;10.75;;
3587;SDS011;1808;53.596;9.972;2023-05-07T06:46:47;16.98;;;9.18;;
3587;SDS011;1808;53.596;9.972;2023-05-07T06:49:15;17.55;;;10.73;;
3587;SDS011;1808;53.596;9.972;2023-05-07T06:51:41;16.80;;;9.85;;
3587;SDS011;1808;53.596;9.972;2023-05-07T06:54:07;17.50;;;9.73;;
3587;SDS011;1808;53.596;9.972;2023-05-07T06:56:34;16.23;;;8.82;;
3587;SDS011;1808;53.596;9.972;2023-05-07T06:59:00;14.85;;;9.23;;
3587;SDS011;1808;53.596;9.972;2023-05-07T07:01:26;16.73;;;9.00;;
3587;SDS011;1808;53.596;9.972;2023-05-07T07:03:53;14.15;;;9.93;;
3587;SDS011;1808;53.596;9.972;2023-05-07T07:06:20;16.70;;;8.90;;
3587;SDS011;1808;53.596;9.972;2023-05-07T07:08:47;15.00;;;8.82;;
3587;SDS011;1808;53.596;9.972;2023-05-07T07:11:13;13.13;;;8.20;;
3587;SDS011;1808;53.596;9.972;2023-05-07T07:13:39;14.07;;;8.50;;
3587;SDS011;1808;53.596;9.972;2023-05-07T07:16:05;13.75;;;7.82;;
3587;SDS011;1808;53.596;9.972;2023-05-07T07:18:31;16.27;;;9.68;;
3587;SDS011;1808;53.596;9.972;2023-05-07T07:20:57;13.73;;;8.35;;
3587;SDS011;1808;53.596;9.972;2023-05-07T07:23:25;14.88;;;8.52;;
3587;SDS011;1808;53.596;9.972;2023-05-07T07:25:51;14.82;;;9.60;;
3587;SDS011;1808;53.596;9.972;2023-05-07T07:28:17;13.98;;;8.55;;
3587;SDS011;1808;53.596;9.972;2023-05-07T07:30:43;13.23;;;8.32;;
3587;SDS011;1808;53.596;9.972;2023-05-07T07:33:10;13.23;;;9.02;;
3587;SDS011;1808;53.596;9.972;2023-05-07T07:35:36;14.35;;;8.95;;
3587;SDS011;1808;53.596;9.972;2023-05-07T07:38:02;14.48;;;9.13;;
3587;SDS011;1808;53.596;9.972;2023-05-07T07:40:30;14.40;;;8.60;;
3587;SDS011;1808;53.596;9.972;2023-05-07T07:42:56;15.57;;;9.13;;
3587;SDS011;1808;53.596;9.972;2023-05-07T07:45:22;14.63;;;9.10;;
3587;SDS011;1808;53.596;9.972;2023-05-07T07:47:49;14.60;;;7.45;;
3587;SDS011;1808;53.596;9.972;2023-05-07T07:50:15;12.35;;;8.02;;
3587;SDS011;1808;53.596;9.972;2023-05-07T07:52:41;14.23;;;9.63;;
3587;SDS011;1808;53.596;9.972;2023-05-07T07:55:08;14.80;;;8.70;;
3587;SDS011;1808;53.596;9.972;2023-05-07T07:57:35;13.00;;;8.35;;
3587;SDS011;1808;53.596;9.972;2023-05-07T08:00:02;13.38;;;9.63;;
3587;SDS011;1808;53.596;9.972;2023-05-07T08:02:28;14.43;;;8.63;;
3587;SDS011;1808;53.596;9.972;2023-05-07T08:04:54;13.55;;;8.10;;
3587;SDS011;1808;53.596;9.972;2023-05-07T08:07:21;11.75;;;7.78;;
3587;SDS011;1808;53.596;9.972;2023-05-07T08:09:47;13.02;;;8.02;;
3587;SDS011;1808;53.596;9.972;2023-05-07T08:12:14;13.65;;;8.18;;
3587;SDS011;1808;53.596;9.972;2023-05-07T08:14:41;11.50;;;7.72;;
3587;SDS011;1808;53.596;9.972;2023-05-07T08:17:08;12.52;;;7.80;;
3587;SDS011;1808;53.596;9.972;2023-05-07T08:19:35;13.75;;;8.20;;
3587;SDS011;1808;53.596;9.972;2023-05-07T08:22:01;12.35;;;7.93;;
3587;SDS011;1808;53.596;9.972;2023-05-07T08:24:28;14.68;;;9.63;;
3587;SDS011;1808;53.596;9.972;2023-05-07T08:26:54;12.10;;;8.10;;
3587;SDS011;1808;53.596;9.972;2023-05-07T08:29:20;12.73;;;7.75;;
3587;SDS011;1808;53.596;9.972;2023-05-07T08:31:48;12.20;;;7.70;;
3587;SDS011;1808;53.596;9.972;2023-05-07T08:34:14;12.40;;;8.18;;
3587;SDS011;1808;53.596;9.972;2023-05-07T08:36:40;12.00;;;7.93;;
3587;SDS011;1808;53.596;9.972;2023-05-07T08:39:07;14.75;;;8.48;;
3587;SDS011;1808;53.596;9.972;2023-05-07T08:41:34;12.63;;;8.48;;
3587;SDS011;1808;53.596;9.972;2023-05-07T08:44:00;14.48;;;8.98;;
3587;SDS011;1808;53.596;9.972;2023-05-07T08:46:29;14.85;;;9.48;;
3587;SDS011;1808;53.596;9.972;2023-05-07T08:48:58;14.63;;;9.15;;
3587;SDS011;1808;53.596;9.972;2023-05-07T08:51:24;14.77;;;9.45;;
3587;SDS011;1808;53.596;9.972;2023-05-07T08:53:52;12.80;;;9.40;;
3587;SDS011;1808;53.596;9.972;2023-05-07T08:56:18;12.80;;;8.38;;
3587;SDS011;1808;53.596;9.972;2023-05-07T08:58:45;15.35;;;8.77;;
3587;SDS011;1808;53.596;9.972;2023-05-07T09:01:12;14.05;;;10.23;;
3587;SDS011;1808;53.596;9.972;2023-05-07T09:03:39;14.73;;;9.02;;
3587;SDS011;1808;53.596;9.972;2023-05-07T09:06:07;13.20;;;8.85;;
3587;SDS011;1808;53.596;9.972;2023-05-07T09:08:33;14.68;;;8.13;;
3587;SDS011;1808;53.596;9.972;2023-05-07T09:10:59;11.18;;;7.53;;
3587;SDS011;1808;53.596;9.972;2023-05-07T09:13:26;11.48;;;8.38;;
3587;SDS011;1808;53.596;9.972;2023-05-07T09:15:53;11.48;;;8.32;;
3587;SDS011;1808;53.596;9.972;2023-05-07T09:18:19;13.98;;;8.82;;
3587;SDS011;1808;53.596;9.972;2023-05-07T09:20:45;11.57;;;7.97;;
3587;SDS011;1808;53.596;9.972;2023-05-07T09:23:13;10.27;;;7.60;;
3587;SDS011;1808;53.596;9.972;2023-05-07T09:25:40;12.15;;;8.48;;
3587;SDS011;1808;53.596;9.972;2023-05-07T09:28:06;10.63;;;7.65;;
3587;SDS011;1808;53.596;9.972;2023-05-07T09:30:33;11.43;;;7.75;;
3587;SDS011;1808;53.596;9.972;2023-05-07T09:33:00;11.43;;;7.68;;
3587;SDS011;1808;53.596;9.972;2023-05-07T09:35:26;12.77;;;7.47;;
3587;SDS011;1808;53.596;9.972;2023-05-07T09:37:53;10.98;;;8.02;;
3587;SDS011;1808;53.596;9.972;2023-05-07T09:40:21;11.13;;;7.72;;
3587;SDS011;1808;53.596;9.972;2023-05-07T09:42:48;13.00;;;7.57;;
3587;SDS011;1808;53.596;9.972;2023-05-07T09:45:14;10.85;;;7.57;;
3587;SDS011;1808;53.596;9.972;2023-05-07T09:47:40;11.38;;;7.85;;
3587;SDS011;1808;53.596;9.972;2023-05-07T09:50:09;12.50;;;7.93;;
3587;SDS011;1808;53.596;9.972;2023-05-07T09:52:36;14.57;;;7.15;;
3587;SDS011;1808;53.596;9.972;2023-05-07T09:55:04;12.57;;;8.07;;
3587;SDS011;1808;53.596;9.972;2023-05-07T09:57:32;9.95;;;7.10;;
3587;SDS011;1808;53.596;9.972;2023-05-07T09:59:59;10.15;;;7.00;;
3587;SDS011;1808;53.596;9.972;2023-05-07T10:02:26;12.25;;;8.20;;
3587;SDS011;1808;53.596;9.972;2023-05-07T10:04:54;11.25;;;8.57;;
3587;SDS011;1808;53.596;9.972;2023-05-07T10:07:21;10.25;;;6.93;;
3587;SDS011;1808;53.596;9.972;2023-05-07T10:09:47;11.55;;;7.55;;
3587;SDS011;1808;53.596;9.972;2023-05-07T10:12:14;11.68;;;7.57;;
3587;SDS011;1808;53.596;9.972;2023-05-07T10:14:42;10.10;;;7.57;;
3587;SDS011;1808;53.596;9.972;2023-05-07T10:17:08;10.75;;;7.97;;
3587;SDS011;1808;53.596;9.972;2023-05-07T10:19:36;11.68;;;7.88;;
3587;SDS011;1808;53.596;9.972;2023-05-07T10:22:04;11.57;;;8.18;;
3587;SDS011;1808;53.596;9.972;2023-05-07T10:24:31;12.70;;;7.72;;
3587;SDS011;1808;53.596;9.972;2023-05-07T10:26:59;12.25;;;7.90;;
3587;SDS011;1808;53.596;9.972;2023-05-07T10:29:29;12.90;;;8.98;;
3587;SDS011;1808;53.596;9.972;2023-05-07T10:32:03;11.95;;;7.93;;
3587;SDS011;1808;53.596;9.972;2023-05-07T10:34:33;11.63;;;7.72;;
3587;SDS011;1808;53.596;9.972;2023-05-07T10:37:00;11.95;;;7.93;;
3587;SDS011;1808;53.596;9.972;2023-05-07T10:39:27;11.07;;;7.30;;
3587;SDS011;1808;53.596;9.972;2023-05-07T10:41:53;9.95;;;7.43;;
3587;SDS011;1808;53.596;9.972;2023-05-07T10:44:26;13.50;;;7.40;;
3587;SDS011;1808;53.596;9.972;2023-05-07T10:49:36;11.82;;;6.85;;
3587;SDS011;1808;53.596;9.972;2023-05-07T10:52:12;10.57;;;6.80;;
3587;SDS011;1808;53.596;9.972;2023-05-07T10:54:39;13.13;;;6.80;;
3587;SDS011;1808;53.596;9.972;2023-05-07T11:00:02;11.20;;;7.22;;
3587;SDS011;1808;53.596;9.972;2023-05-07T11:05:19;9.30;;;6.28;;
3587;SDS011;1808;53.596;9.972;2023-05-07T11:07:53;8.95;;;6.40;;
3587;SDS011;1808;53.596;9.972;2023-05-07T11:10:19;14.07;;;6.65;;
3587;SDS011;1808;53.596;9.972;2023-05-07T11:12:46;10.93;;;6.15;;
3587;SDS011;1808;53.596;9.972;2023-05-07T11:15:13;9.15;;;6.47;;
3587;SDS011;1808;53.596;9.972;2023-05-07T11:17:51;8.90;;;6.40;;
3587;SDS011;1808;53.596;9.972;2023-05-07T11:20:19;9.23;;;6.32;;
3587;SDS011;1808;53.596;9.972;2023-05-07T11:22:45;8.73;;;6.00;;
3587;SDS011;1808;53.596;9.972;2023-05-07T11:25:14;7.68;;;5.40;;
3587;SDS011;1808;53.596;9.972;2023-05-07T11:27:42;7.40;;;5.57;;
3587;SDS011;1808;53.596;9.972;2023-05-07T11:30:09;8.40;;;5.93;;
3587;SDS011;1808;53.596;9.972;2023-05-07T11:32:36;13.57;;;6.40;;
3587;SDS011;1808;53.596;9.972;2023-05-07T11:35:02;8.18;;;5.85;;
3587;SDS011;1808;53.596;9.972;2023-05-07T11:37:30;7.63;;;5.75;;
3587;SDS011;1808;53.596;9.972;2023-05-07T11:40:02;9.27;;;5.93;;
3587;SDS011;1808;53.596;9.972;2023-05-07T11:44:55;8.00;;;6.13;;
3587;SDS011;1808;53.596;9.972;2023-05-07T11:47:21;9.70;;;6.38;;
3587;SDS011;1808;53.596;9.972;2023-05-07T11:49:48;8.13;;;5.72;;
3587;SDS011;1808;53.596;9.972;2023-05-07T11:52:14;7.82;;;6.18;;
3587;SDS011;1808;53.596;9.972;2023-05-07T11:54:43;7.82;;;5.15;;
3587;SDS011;1808;53.596;9.972;2023-05-07T11:57:14;7.72;;;5.03;;
3587;SDS011;1808;53.596;9.972;2023-05-07T11:59:40;9.77;;;5.40;;
3587;SDS011;1808;53.596;9.972;2023-05-07T12:02:06;8.15;;;5.25;;
3587;SDS011;1808;53.596;9.972;2023-05-07T12:04:33;6.38;;;4.82;;
3587;SDS011;1808;53.596;9.972;2023-05-07T12:06:59;6.20;;;4.60;;
3587;SDS011;1808;53.596;9.972;2023-05-07T12:09:26;10.07;;;5.47;;
3587;SDS011;1808;53.596;9.972;2023-05-07T12:11:53;6.75;;;5.03;;
3587;SDS011;1808;53.596;9.972;2023-05-07T12:14:21;7.70;;;5.15;;
3587;SDS011;1808;53.596;9.972;2023-05-07T12:16:47;6.38;;;4.70;;
3587;SDS011;1808;53.596;9.972;2023-05-07T12:19:13;7.53;;;5.05;;
3587;SDS011;1808;53.596;9.972;2023-05-07T12:21:40;7.75;;;5.20;;
3587;SDS011;1808;53.596;9.972;2023-05-07T12:24:07;7.15;;;4.90;;
3587;SDS011;1808;53.596;9.972;2023-05-07T12:26:36;8.35;;;5.03;;
3587;SDS011;1808;53.596;9.972;2023-05-07T12:29:04;7.55;;;5.40;;
3587;SDS011;1808;53.596;9.972;2023-05-07T12:31:30;6.28;;;4.75;;
3587;SDS011;1808;53.596;9.972;2023-05-07T12:33:56;6.78;;;4.93;;
3587;SDS011;1808;53.596;9.972;2023-05-07T12:36:23;8.43;;;5.05;;
3587;SDS011;1808;53.596;9.972;2023-05-07T12:38:50;6.32;;;4.60;;
3587;SDS011;1808;53.596;9.972;2023-05-07T12:41:17;5.95;;;4.53;;
3587;SDS011;1808;53.596;9.972;2023-05-07T12:43:43;6.38;;;4.70;;
3587;SDS011;1808;53.596;9.972;2023-05-07T12:46:11;5.53;;;4.63;;
3587;SDS011;1808;53.596;9.972;2023-05-07T12:48:38;7.28;;;4.63;;
3587;SDS011;1808;53.596;9.972;2023-05-07T12:51:09;5.07;;;4.03;;
3587;SDS011;1808;53.596;9.972;2023-05-07T12:53:39;6.05;;;4.65;;
3587;SDS011;1808;53.596;9.972;2023-05-07T12:56:05;6.32;;;4.28;;
3587;SDS011;1808;53.596;9.972;2023-05-07T12:58:32;5.07;;;4.03;;
3587;SDS011;1808;53.596;9.972;2023-05-07T13:00:59;8.68;;;5.50;;
3587;SDS011;1808;53.596;9.972;2023-05-07T13:03:28;5.57;;;4.28;;
3587;SDS011;1808;53.596;9.972;2023-05-07T13:05:54;7.35;;;4.72;;
3587;SDS011;1808;53.596;9.972;2023-05-07T13:08:24;5.78;;;4.53;;
3587;SDS011;1808;53.596;9.972;2023-05-07T13:10:51;5.20;;;4.30;;
3587;SDS011;1808;53.596;9.972;2023-05-07T13:13:17;5.28;;;4.00;;
3587;SDS011;1808;53.596;9.972;2023-05-07T13:15:43;5.72;;;4.18;;
3587;SDS011;1808;53.596;9.972;2023-05-07T13:18:09;6.65;;;4.28;;
3587;SDS011;1808;53.596;9.972;2023-05-07T13:20:37;5.95;;;4.20;;
3587;SDS011;1808;53.596;9.972;2023-05-07T13:23:03;5.60;;;4.07;;
3587;SDS011;1808;53.596;9.972;2023-05-07T13:25:30;7.63;;;3.92;;
3587;SDS011;1808;53.596;9.972;2023-05-07T13:27:56;5.38;;;3.83;;
3587;SDS011;1808;53.596;9.972;2023-05-07T13:30:25;6.28;;;3.63;;
3587;SDS011;1808;53.596;9.972;2023-05-07T13:32:51;5.55;;;3.55;;
3587;SDS011;1808;53.596;9.972;2023-05-07T13:35:17;7.93;;;4.18;;
3587;SDS011;1808;53.596;9.972;2023-05-07T13:37:45;6.03;;;4.00;;
3587;SDS011;1808;53.596;9.972;2023-05-07T13:40:13;5.53;;;4.00;;
3587;SDS011;1808;53.596;9.972;2023-05-07T13:42:39;6.07;;;3.60;;
3587;SDS011;1808;53.596;9.972;2023-05-07T13:45:06;5.97;;;4.20;;
3587;SDS011;1808;53.596;9.972;2023-05-07T13:47:33;7.95;;;4.10;;
3587;SDS011;1808;53.596;9.972;2023-05-07T13:49:59;4.95;;;3.83;;
3587;SDS011;1808;53.596;9.972;2023-05-07T13:52:25;5.28;;;3.45;;
3587;SDS011;1808;53.596;9.972;2023-05-07T13:54:53;4.55;;;3.80;;
3587;SDS011;1808;53.596;9.972;2023-05-07T13:57:20;4.70;;;3.72;;
3587;SDS011;1808;53.596;9.972;2023-05-07T13:59:46;5.47;;;4.38;;
3587;SDS011;1808;53.596;9.972;2023-05-07T14:02:12;4.43;;;3.58;;
3587;SDS011;1808;53.596;9.972;2023-05-07T14:04:38;4.63;;;3.58;;
3587;SDS011;1808;53.596;9.972;2023-05-07T14:07:04;4.50;;;3.22;;
3587;SDS011;1808;53.596;9.972;2023-05-07T14:09:31;5.30;;;3.15;;
3587;SDS011;1808;53.596;9.972;2023-05-07T14:11:58;5.20;;;3.33;;
3587;SDS011;1808;53.596;9.972;2023-05-07T14:14:25;4.65;;;3.22;;
3587;SDS011;1808;53.596;9.972;2023-05-07T14:16:51;4.60;;;3.25;;
3587;SDS011;1808;53.596;9.972;2023-05-07T14:19:17;4.68;;;3.35;;
3587;SDS011;1808;53.596;9.972;2023-05-07T14:21:43;7.18;;;3.13;;
3587;SDS011;1808;53.596;9.972;2023-05-07T14:24:09;4.60;;;3.10;;
3587;SDS011;1808;53.596;9.972;2023-05-07T14:26:36;5.15;;;2.80;;
3587;SDS011;1808;53.596;9.972;2023-05-07T14:29:03;3.92;;;2.75;;
3587;SDS011;1808;53.596;9.972;2023-05-07T14:31:29;4.57;;;2.88;;
3587;SDS011;1808;53.596;9.972;2023-05-07T14:33:56;4.50;;;3.10;;
3587;SDS011;1808;53.596;9.972;2023-05-07T14:36:24;4.60;;;3.03;;
3587;SDS011;1808;53.596;9.972;2023-05-07T14:38:51;4.50;;;2.88;;
3587;SDS011;1808;53.596;9.972;2023-05-07T14:41:17;3.40;;;2.80;;
3587;SDS011;1808;53.596;9.972;2023-05-07T14:43:43;3.85;;;3.00;;
3587;SDS011;1808;53.596;9.972;2023-05-07T14:46:16;4.47;;;3.17;;
3587;SDS011;1808;53.596;9.972;2023-05-07T14:48:43;6.10;;;2.95;;
3587;SDS011;1808;53.596;9.972;2023-05-07T14:51:09;4.00;;;2.72;;
3587;SDS011;1808;53.596;9.972;2023-05-07T14:53:35;5.43;;;3.35;;
3587;SDS011;1808;53.596;9.972;2023-05-07T14:56:02;4.45;;;3.28;;
3587;SDS011;1808;53.596;9.972;2023-05-07T14:58:28;5.43;;;3.28;;
3587;SDS011;1808;53.596;9.972;2023-05-07T15:00:54;3.50;;;2.72;;
3587;SDS011;1808;53.596;9.972;2023-05-07T15:03:22;4.95;;;3.17;;
3587;SDS011;1808;53.596;9.972;2023-05-07T15:05:48;7.05;;;3.47;;
3587;SDS011;1808;53.596;9.972;2023-05-07T15:08:16;7.00;;;4.22;;
3587;SDS011;1808;53.596;9.972;2023-05-07T15:10:42;4.88;;;2.70;;